sensor_id;sensor_type;location;lat;lon;timestamp;pressure;altitude;pressure_sealevel;temperature;humidity
82784;BME280;72520;55.762;37.780;2024-03-22T00:01:48;100397.94;;;2.36;54.22
82784;BME280;72520;55.762;37.780;2024-03-22T00:04:49;100396.19;;;2.35;53.03
82784;BME280;72520;55.762;37.780;2024-03-22T00:07:53;100397.94;;;2.35;53.95
82784;BME280;72520;55.762;37.780;2024-03-22T00:10:59;100390.84;;;2.40;53.65
82784;BME280;72520;55.762;37.780;2024-03-22T00:14:01;100400.25;;;2.50;53.13
82784;BME280;72520;55.762;37.780;2024-03-22T00:17:03;100396.72;;;2.51;53.08
82784;BME280;72520;55.762;37.780;2024-03-22T00:20:07;100394.13;;;2.49;53.26
82784;BME280;72520;55.762;37.780;2024-03-22T00:23:09;100397.63;;;2.50;54.27
82784;BME280;72520;55.762;37.780;2024-03-22T00:26:14;100381.84;;;2.50;52.52
82784;BME280;72520;55.762;37.780;2024-03-22T00:29:15;100380.13;;;2.49;54.26
82784;BME280;72520;55.762;37.780;2024-03-22T00:32:17;100375.78;;;2.48;53.70
82784;BME280;72520;55.762;37.780;2024-03-22T00:35:19;100383.75;;;2.45;54.14
82784;BME280;72520;55.762;37.780;2024-03-22T00:38:22;100380.03;;;2.52;52.38
82784;BME280;72520;55.762;37.780;2024-03-22T00:41:25;100384.16;;;2.64;51.97
82784;BME280;72520;55.762;37.780;2024-03-22T00:44:26;100382.28;;;2.69;51.32
82784;BME280;72520;55.762;37.780;2024-03-22T00:47:28;100382.25;;;2.70;50.63
82784;BME280;72520;55.762;37.780;2024-03-22T00:50:36;100381.28;;;2.73;49.51
82784;BME280;72520;55.762;37.780;2024-03-22T00:53:39;100390.13;;;2.70;51.27
82784;BME280;72520;55.762;37.780;2024-03-22T00:56:44;100385.81;;;2.68;50.67
82784;BME280;72520;55.762;37.780;2024-03-22T00:59:47;100391.22;;;2.62;52.17
82784;BME280;72520;55.762;37.780;2024-03-22T01:02:49;100387.75;;;2.60;52.29
82784;BME280;72520;55.762;37.780;2024-03-22T01:05:52;100384.41;;;2.53;52.13
82784;BME280;72520;55.762;37.780;2024-03-22T01:08:57;100379.16;;;2.53;51.44
82784;BME280;72520;55.762;37.780;2024-03-22T01:12:01;100371.19;;;2.56;52.03
82784;BME280;72520;55.762;37.780;2024-03-22T01:15:03;100371.13;;;2.59;50.54
82784;BME280;72520;55.762;37.780;2024-03-22T01:18:11;100380.72;;;2.60;50.69
82784;BME280;72520;55.762;37.780;2024-03-22T01:21:14;100371.91;;;2.63;50.01
82784;BME280;72520;55.762;37.780;2024-03-22T01:24:20;100373.75;;;2.59;50.35
82784;BME280;72520;55.762;37.780;2024-03-22T01:27:21;100370.44;;;2.51;50.03
82784;BME280;72520;55.762;37.780;2024-03-22T01:30:23;100366.97;;;2.50;50.34
82784;BME280;72520;55.762;37.780;2024-03-22T01:33:26;100361.78;;;2.47;50.54
82784;BME280;72520;55.762;37.780;2024-03-22T01:36:28;100355.59;;;2.50;50.49
82784;BME280;72520;55.762;37.780;2024-03-22T01:39:31;100352.22;;;2.45;50.81
82784;BME280;72520;55.762;37.780;2024-03-22T01:42:36;100346.09;;;2.44;50.61
82784;BME280;72520;55.762;37.780;2024-03-22T01:45:41;100347.63;;;2.53;50.08
82784;BME280;72520;55.762;37.780;2024-03-22T01:48:42;100345.69;;;2.61;50.26
82784;BME280;72520;55.762;37.780;2024-03-22T01:51:44;100342.28;;;2.56;50.73
82784;BME280;72520;55.762;37.780;2024-03-22T01:54:47;100336.97;;;2.59;50.40
82784;BME280;72520;55.762;37.780;2024-03-22T01:57:51;100340.75;;;2.47;50.62
82784;BME280;72520;55.762;37.780;2024-03-22T02:00:54;100340.00;;;2.42;51.00
82784;BME280;72520;55.762;37.780;2024-03-22T02:03:57;100340.22;;;2.33;51.19
82784;BME280;72520;55.762;37.780;2024-03-22T02:06:59;100345.41;;;2.35;51.31
82784;BME280;72520;55.762;37.780;2024-03-22T02:10:04;100332.56;;;2.24;51.34
82784;BME280;72520;55.762;37.780;2024-03-22T02:13:12;100324.88;;;2.17;51.79
82784;BME280;72520;55.762;37.780;2024-03-22T02:16:15;100324.16;;;2.09;52.02
82784;BME280;72520;55.762;37.780;2024-03-22T02:19:16;100325.19;;;2.01;52.11
82784;BME280;72520;55.762;37.780;2024-03-22T02:22:18;100322.66;;;1.98;52.70
82784;BME280;72520;55.762;37.780;2024-03-22T02:25:21;100324.28;;;2.04;52.51
82784;BME280;72520;55.762;37.780;2024-03-22T02:28:23;100321.19;;;1.85;52.72
82784;BME280;72520;55.762;37.780;2024-03-22T02:31:25;100323.75;;;1.88;52.66
82784;BME280;72520;55.762;37.780;2024-03-22T02:34:30;100307.19;;;1.85;53.42
82784;BME280;72520;55.762;37.780;2024-03-22T02:37:31;100310.91;;;1.76;54.58
82784;BME280;72520;55.762;37.780;2024-03-22T02:40:36;100308.34;;;1.73;53.79
82784;BME280;72520;55.762;37.780;2024-03-22T02:43:43;100306.53;;;1.75;53.14
82784;BME280;72520;55.762;37.780;2024-03-22T02:46:48;100305.72;;;1.73;53.61
82784;BME280;72520;55.762;37.780;2024-03-22T02:49:49;100309.16;;;1.77;53.74
82784;BME280;72520;55.762;37.780;2024-03-22T02:52:51;100302.16;;;1.76;53.29
82784;BME280;72520;55.762;37.780;2024-03-22T02:55:54;100304.75;;;1.77;53.58
82784;BME280;72520;55.762;37.780;2024-03-22T02:58:56;100300.47;;;1.73;54.04
82784;BME280;72520;55.762;37.780;2024-03-22T03:01:58;100294.38;;;1.71;54.15
82784;BME280;72520;55.762;37.780;2024-03-22T03:04:59;100296.13;;;1.72;53.58
82784;BME280;72520;55.762;37.780;2024-03-22T03:08:08;100290.94;;;1.69;53.67
82784;BME280;72520;55.762;37.780;2024-03-22T03:11:13;100288.47;;;1.63;53.76
82784;BME280;72520;55.762;37.780;2024-03-22T03:14:15;100292.84;;;1.63;53.49
82784;BME280;72520;55.762;37.780;2024-03-22T03:17:19;100288.56;;;1.57;53.38
82784;BME280;72520;55.762;37.780;2024-03-22T03:20:22;100293.78;;;1.59;53.76
82784;BME280;72520;55.762;37.780;2024-03-22T03:23:25;100289.47;;;1.56;53.81
82784;BME280;72520;55.762;37.780;2024-03-22T03:26:31;100290.31;;;1.58;53.46
82784;BME280;72520;55.762;37.780;2024-03-22T03:29:36;100284.31;;;1.51;53.88
82784;BME280;72520;55.762;37.780;2024-03-22T03:32:47;100272.94;;;1.52;54.06
82784;BME280;72520;55.762;37.780;2024-03-22T03:35:49;100280.69;;;1.57;54.58
82784;BME280;72520;55.762;37.780;2024-03-22T03:38:51;100272.81;;;1.57;54.11
82784;BME280;72520;55.762;37.780;2024-03-22T03:41:55;100272.03;;;1.53;53.84
82784;BME280;72520;55.762;37.780;2024-03-22T03:44:56;100275.56;;;1.52;54.17
82784;BME280;72520;55.762;37.780;2024-03-22T03:47:58;100268.53;;;1.54;54.21
82784;BME280;72520;55.762;37.780;2024-03-22T03:51:00;100274.72;;;1.50;54.52
82784;BME280;72520;55.762;37.780;2024-03-22T03:54:06;100272.00;;;1.55;54.57
82784;BME280;72520;55.762;37.780;2024-03-22T03:57:09;100270.28;;;1.54;54.83
82784;BME280;72520;55.762;37.780;2024-03-22T04:00:12;100279.00;;;1.56;54.86
82784;BME280;72520;55.762;37.780;2024-03-22T04:03:13;100262.47;;;1.51;55.45
82784;BME280;72520;55.762;37.780;2024-03-22T04:06:22;100265.31;;;1.42;56.13
82784;BME280;72520;55.762;37.780;2024-03-22T04:09:24;100272.16;;;1.47;55.50
82784;BME280;72520;55.762;37.780;2024-03-22T04:12:27;100261.66;;;1.49;55.59
82784;BME280;72520;55.762;37.780;2024-03-22T04:15:34;100257.56;;;1.36;55.96
82784;BME280;72520;55.762;37.780;2024-03-22T04:18:36;100256.56;;;1.41;56.16
82784;BME280;72520;55.762;37.780;2024-03-22T04:21:37;100252.06;;;1.48;55.92
82784;BME280;72520;55.762;37.780;2024-03-22T04:24:42;100256.50;;;1.44;55.95
82784;BME280;72520;55.762;37.780;2024-03-22T04:27:45;100260.78;;;1.48;55.82
82784;BME280;72520;55.762;37.780;2024-03-22T04:30:56;100259.63;;;1.60;56.70
82784;BME280;72520;55.762;37.780;2024-03-22T04:33:57;100258.69;;;1.64;55.41
82784;BME280;72520;55.762;37.780;2024-03-22T04:36:59;100251.53;;;1.71;55.50
82784;BME280;72520;55.762;37.780;2024-03-22T04:40:01;100250.63;;;1.73;55.42
82784;BME280;72520;55.762;37.780;2024-03-22T04:43:06;100252.22;;;1.80;55.77
82784;BME280;72520;55.762;37.780;2024-03-22T04:46:08;100260.03;;;1.83;55.39
82784;BME280;72520;55.762;37.780;2024-03-22T04:49:10;100264.91;;;1.98;55.27
82784;BME280;72520;55.762;37.780;2024-03-22T04:52:12;100261.78;;;1.81;55.67
82784;BME280;72520;55.762;37.780;2024-03-22T04:55:16;100267.66;;;1.92;55.44
82784;BME280;72520;55.762;37.780;2024-03-22T04:58:20;100264.66;;;2.08;55.24
82784;BME280;72520;55.762;37.780;2024-03-22T05:01:25;100245.66;;;2.33;54.41
82784;BME280;72520;55.762;37.780;2024-03-22T05:04:28;100249.34;;;2.62;54.03
82784;BME280;72520;55.762;37.780;2024-03-22T05:10:53;100240.94;;;3.12;52.24
82784;BME280;72520;55.762;37.780;2024-03-22T05:13:55;100231.44;;;3.65;51.49
82784;BME280;72520;55.762;37.780;2024-03-22T05:16:58;100226.16;;;3.94;50.56
82784;BME280;72520;55.762;37.780;2024-03-22T05:19:59;100241.00;;;3.68;50.98
82784;BME280;72520;55.762;37.780;2024-03-22T05:23:05;100229.72;;;3.92;50.45
82784;BME280;72520;55.762;37.780;2024-03-22T05:26:08;100226.53;;;4.08;50.16
82784;BME280;72520;55.762;37.780;2024-03-22T05:29:25;100228.56;;;4.28;50.46
82784;BME280;72520;55.762;37.780;2024-03-22T05:32:28;100227.59;;;4.04;50.83
82784;BME280;72520;55.762;37.780;2024-03-22T05:35:36;100226.31;;;4.16;50.38
82784;BME280;72520;55.762;37.780;2024-03-22T05:38:37;100225.09;;;4.26;49.91
82784;BME280;72520;55.762;37.780;2024-03-22T05:41:39;100225.13;;;4.51;49.37
82784;BME280;72520;55.762;37.780;2024-03-22T05:44:43;100215.13;;;4.85;49.51
82784;BME280;72520;55.762;37.780;2024-03-22T05:47:45;100215.53;;;5.23;48.04
82784;BME280;72520;55.762;37.780;2024-03-22T05:50:47;100207.34;;;5.52;47.65
82784;BME280;72520;55.762;37.780;2024-03-22T05:53:49;100211.53;;;5.34;47.28
82784;BME280;72520;55.762;37.780;2024-03-22T05:56:51;100213.09;;;5.40;47.99
82784;BME280;72520;55.762;37.780;2024-03-22T05:59:54;100208.09;;;6.00;46.50
82784;BME280;72520;55.762;37.780;2024-03-22T06:02:56;100202.59;;;6.27;45.19
82784;BME280;72520;55.762;37.780;2024-03-22T06:06:01;100201.25;;;6.79;44.47
82784;BME280;72520;55.762;37.780;2024-03-22T06:09:04;100191.34;;;7.41;43.43
82784;BME280;72520;55.762;37.780;2024-03-22T06:12:12;100185.97;;;7.61;42.78
82784;BME280;72520;55.762;37.780;2024-03-22T06:15:16;100176.88;;;8.03;42.83
82784;BME280;72520;55.762;37.780;2024-03-22T06:18:18;100183.97;;;8.38;40.62
82784;BME280;72520;55.762;37.780;2024-03-22T06:21:20;100183.75;;;8.77;40.37
82784;BME280;72520;55.762;37.780;2024-03-22T06:24:26;100178.38;;;9.27;39.63
82784;BME280;72520;55.762;37.780;2024-03-22T06:27:29;100163.00;;;9.96;38.03
82784;BME280;72520;55.762;37.780;2024-03-22T06:30:33;100164.34;;;10.19;37.11
82784;BME280;72520;55.762;37.780;2024-03-22T06:33:34;100170.09;;;10.27;37.31
82784;BME280;72520;55.762;37.780;2024-03-22T06:36:39;100163.78;;;10.44;37.22
82784;BME280;72520;55.762;37.780;2024-03-22T06:39:42;100155.50;;;10.18;36.96
82784;BME280;72520;55.762;37.780;2024-03-22T06:42:43;100160.38;;;10.26;36.80
82784;BME280;72520;55.762;37.780;2024-03-22T06:45:47;100157.13;;;10.21;36.87
82784;BME280;72520;55.762;37.780;2024-03-22T06:48:49;100166.56;;;10.27;37.84
82784;BME280;72520;55.762;37.780;2024-03-22T06:51:51;100159.03;;;10.03;37.19
82784;BME280;72520;55.762;37.780;2024-03-22T06:54:55;100171.16;;;9.62;37.95
82784;BME280;72520;55.762;37.780;2024-03-22T06:57:57;100164.97;;;8.97;39.63
82784;BME280;72520;55.762;37.780;2024-03-22T07:01:00;100155.72;;;8.54;40.43
82784;BME280;72520;55.762;37.780;2024-03-22T07:04:02;100160.47;;;8.65;40.20
82784;BME280;72520;55.762;37.780;2024-03-22T07:07:05;100158.00;;;8.45;40.53
82784;BME280;72520;55.762;37.780;2024-03-22T07:10:09;100152.34;;;8.68;39.46
82784;BME280;72520;55.762;37.780;2024-03-22T07:13:12;100157.50;;;8.54;39.89
82784;BME280;72520;55.762;37.780;2024-03-22T07:16:15;100159.72;;;8.46;39.49
82784;BME280;72520;55.762;37.780;2024-03-22T07:19:17;100147.75;;;8.72;39.14
82784;BME280;72520;55.762;37.780;2024-03-22T07:22:21;100148.19;;;8.97;38.46
82784;BME280;72520;55.762;37.780;2024-03-22T07:25:24;100149.63;;;9.02;38.34
82784;BME280;72520;55.762;37.780;2024-03-22T07:28:28;100140.50;;;9.24;37.79
82784;BME280;72520;55.762;37.780;2024-03-22T07:31:31;100131.44;;;9.28;37.90
82784;BME280;72520;55.762;37.780;2024-03-22T07:34:33;100139.75;;;9.53;36.35
82784;BME280;72520;55.762;37.780;2024-03-22T07:37:35;100129.81;;;9.41;37.64
82784;BME280;72520;55.762;37.780;2024-03-22T07:40:38;100122.88;;;9.54;36.99
82784;BME280;72520;55.762;37.780;2024-03-22T07:43:42;100121.13;;;9.84;35.68
82784;BME280;72520;55.762;37.780;2024-03-22T07:46:46;100117.59;;;9.99;34.88
82784;BME280;72520;55.762;37.780;2024-03-22T07:49:48;100116.38;;;10.05;34.93
82784;BME280;72520;55.762;37.780;2024-03-22T07:52:50;100115.25;;;10.09;34.85
82784;BME280;72520;55.762;37.780;2024-03-22T07:55:55;100108.47;;;10.19;34.79
82784;BME280;72520;55.762;37.780;2024-03-22T07:58:56;100098.44;;;10.08;34.99
82784;BME280;72520;55.762;37.780;2024-03-22T08:01:59;100089.72;;;10.36;33.32
82784;BME280;72520;55.762;37.780;2024-03-22T08:05:01;100093.84;;;9.96;33.87
82784;BME280;72520;55.762;37.780;2024-03-22T08:08:04;100089.72;;;10.36;35.02
82784;BME280;72520;55.762;37.780;2024-03-22T08:11:11;100082.38;;;9.80;35.42
82784;BME280;72520;55.762;37.780;2024-03-22T08:14:15;100077.97;;;9.34;35.74
82784;BME280;72520;55.762;37.780;2024-03-22T08:17:19;100074.13;;;9.24;35.92
82784;BME280;72520;55.762;37.780;2024-03-22T08:20:24;100066.91;;;8.94;36.08
82784;BME280;72520;55.762;37.780;2024-03-22T08:23:26;100061.44;;;8.97;35.91
82784;BME280;72520;55.762;37.780;2024-03-22T08:26:27;100059.31;;;8.71;35.97
82784;BME280;72520;55.762;37.780;2024-03-22T08:29:31;100054.84;;;8.72;36.29
82784;BME280;72520;55.762;37.780;2024-03-22T08:32:33;100047.84;;;8.38;35.13
82784;BME280;72520;55.762;37.780;2024-03-22T08:35:38;100044.41;;;8.18;36.61
82784;BME280;72520;55.762;37.780;2024-03-22T08:38:41;100044.47;;;8.17;36.04
82784;BME280;72520;55.762;37.780;2024-03-22T08:41:44;100025.38;;;7.93;36.84
82784;BME280;72520;55.762;37.780;2024-03-22T08:44:45;100039.88;;;8.03;37.79
82784;BME280;72520;55.762;37.780;2024-03-22T08:47:49;100032.78;;;8.04;38.52
82784;BME280;72520;55.762;37.780;2024-03-22T08:50:51;100028.69;;;7.98;37.68
82784;BME280;72520;55.762;37.780;2024-03-22T08:53:55;100022.13;;;7.88;38.28
82784;BME280;72520;55.762;37.780;2024-03-22T08:56:56;100024.41;;;7.96;37.96
82784;BME280;72520;55.762;37.780;2024-03-22T08:59:58;100015.59;;;7.95;38.11
82784;BME280;72520;55.762;37.780;2024-03-22T09:03:01;100017.59;;;7.90;37.32
82784;BME280;72520;55.762;37.780;2024-03-22T09:06:03;100016.50;;;7.77;38.30
82784;BME280;72520;55.762;37.780;2024-03-22T09:09:05;100022.34;;;7.66;39.45
82784;BME280;72520;55.762;37.780;2024-03-22T09:12:09;100015.81;;;7.74;39.28
82784;BME280;72520;55.762;37.780;2024-03-22T09:15:10;100015.25;;;8.01;38.55
82784;BME280;72520;55.762;37.780;2024-03-22T09:18:18;100008.53;;;8.11;38.26
82784;BME280;72520;55.762;37.780;2024-03-22T09:21:21;100000.72;;;8.43;38.02
82784;BME280;72520;55.762;37.780;2024-03-22T09:24:22;100000.06;;;8.55;37.76
82784;BME280;72520;55.762;37.780;2024-03-22T09:27:25;99993.34;;;8.32;37.34
82784;BME280;72520;55.762;37.780;2024-03-22T09:30:27;99992.94;;;8.40;37.93
82784;BME280;72520;55.762;37.780;2024-03-22T09:33:33;99986.97;;;8.67;36.66
82784;BME280;72520;55.762;37.780;2024-03-22T09:36:36;99975.41;;;9.15;36.37
82784;BME280;72520;55.762;37.780;2024-03-22T09:39:44;99978.50;;;8.92;35.92
82784;BME280;72520;55.762;37.780;2024-03-22T09:42:49;99991.09;;;8.89;36.81
82784;BME280;72520;55.762;37.780;2024-03-22T09:45:52;99976.97;;;8.73;36.20
82784;BME280;72520;55.762;37.780;2024-03-22T09:48:56;99987.44;;;9.07;36.66
82784;BME280;72520;55.762;37.780;2024-03-22T09:52:00;99982.78;;;9.26;35.68
82784;BME280;72520;55.762;37.780;2024-03-22T09:55:07;99969.16;;;9.16;34.39
82784;BME280;72520;55.762;37.780;2024-03-22T09:58:14;99970.72;;;9.66;35.29
82784;BME280;72520;55.762;37.780;2024-03-22T10:01:15;99972.75;;;10.20;34.08
82784;BME280;72520;55.762;37.780;2024-03-22T10:04:21;99963.69;;;10.65;32.92
82784;BME280;72520;55.762;37.780;2024-03-22T10:07:25;99960.41;;;10.89;31.66
82784;BME280;72520;55.762;37.780;2024-03-22T10:10:28;99961.28;;;11.43;32.27
82784;BME280;72520;55.762;37.780;2024-03-22T10:13:29;99957.34;;;11.48;32.32
82784;BME280;72520;55.762;37.780;2024-03-22T10:16:36;99955.41;;;11.77;30.55
82784;BME280;72520;55.762;37.780;2024-03-22T10:19:39;99954.38;;;11.92;29.85
82784;BME280;72520;55.762;37.780;2024-03-22T10:22:50;99955.44;;;12.15;29.62
82784;BME280;72520;55.762;37.780;2024-03-22T10:25:56;99945.94;;;11.73;30.89
82784;BME280;72520;55.762;37.780;2024-03-22T10:28:59;99939.16;;;11.28;31.07
82784;BME280;72520;55.762;37.780;2024-03-22T10:32:01;99928.59;;;11.27;31.42
82784;BME280;72520;55.762;37.780;2024-03-22T10:35:06;99926.13;;;11.23;31.18
82784;BME280;72520;55.762;37.780;2024-03-22T10:38:07;99915.69;;;10.94;31.07
82784;BME280;72520;55.762;37.780;2024-03-22T10:41:12;99917.47;;;10.66;32.03
82784;BME280;72520;55.762;37.780;2024-03-22T10:44:14;99914.09;;;10.22;31.53
82784;BME280;72520;55.762;37.780;2024-03-22T10:47:16;99910.19;;;10.42;33.17
82784;BME280;72520;55.762;37.780;2024-03-22T10:50:22;99905.22;;;10.64;32.73
82784;BME280;72520;55.762;37.780;2024-03-22T10:53:25;99896.47;;;10.48;32.07
82784;BME280;72520;55.762;37.780;2024-03-22T10:56:28;99896.19;;;10.52;32.43
82784;BME280;72520;55.762;37.780;2024-03-22T10:59:33;99895.28;;;10.39;32.17
82784;BME280;72520;55.762;37.780;2024-03-22T11:02:42;99880.41;;;10.63;31.14
82784;BME280;72520;55.762;37.780;2024-03-22T11:05:47;99879.47;;;10.91;30.90
82784;BME280;72520;55.762;37.780;2024-03-22T11:08:50;99873.06;;;11.20;31.00
82784;BME280;72520;55.762;37.780;2024-03-22T11:11:53;99881.53;;;11.00;31.58
82784;BME280;72520;55.762;37.780;2024-03-22T11:14:58;99877.50;;;11.07;31.36
82784;BME280;72520;55.762;37.780;2024-03-22T11:18:01;99865.38;;;11.16;31.04
82784;BME280;72520;55.762;37.780;2024-03-22T11:21:04;99863.63;;;11.42;30.92
82784;BME280;72520;55.762;37.780;2024-03-22T11:24:08;99862.81;;;11.66;30.74
82784;BME280;72520;55.762;37.780;2024-03-22T11:27:12;99850.31;;;11.54;30.24
82784;BME280;72520;55.762;37.780;2024-03-22T11:30:15;99848.84;;;11.88;31.23
82784;BME280;72520;55.762;37.780;2024-03-22T11:33:19;99844.16;;;11.92;30.41
82784;BME280;72520;55.762;37.780;2024-03-22T11:36:23;99843.72;;;11.98;29.72
82784;BME280;72520;55.762;37.780;2024-03-22T11:39:24;99838.63;;;11.82;31.09
82784;BME280;72520;55.762;37.780;2024-03-22T11:42:27;99827.31;;;11.79;32.83
82784;BME280;72520;55.762;37.780;2024-03-22T11:45:28;99822.94;;;11.90;30.47
82784;BME280;72520;55.762;37.780;2024-03-22T11:48:32;99819.56;;;12.12;29.82
82784;BME280;72520;55.762;37.780;2024-03-22T11:51:35;99804.75;;;12.20;30.81
82784;BME280;72520;55.762;37.780;2024-03-22T11:54:39;99793.19;;;12.56;29.40
82784;BME280;72520;55.762;37.780;2024-03-22T11:57:40;99793.25;;;12.07;29.57
82784;BME280;72520;55.762;37.780;2024-03-22T12:00:42;99788.91;;;11.81;30.12
82784;BME280;72520;55.762;37.780;2024-03-22T12:03:45;99778.84;;;11.85;29.75
82784;BME280;72520;55.762;37.780;2024-03-22T12:06:49;99785.25;;;11.69;30.41
82784;BME280;72520;55.762;37.780;2024-03-22T12:09:50;99774.06;;;11.39;31.40
82784;BME280;72520;55.762;37.780;2024-03-22T12:12:53;99769.66;;;11.13;31.71
82784;BME280;72520;55.762;37.780;2024-03-22T12:15:55;99754.97;;;11.20;33.89
82784;BME280;72520;55.762;37.780;2024-03-22T12:18:57;99760.09;;;11.23;32.12
82784;BME280;72520;55.762;37.780;2024-03-22T12:22:02;99748.16;;;11.29;31.08
82784;BME280;72520;55.762;37.780;2024-03-22T12:25:07;99737.47;;;11.03;31.51
82784;BME280;72520;55.762;37.780;2024-03-22T12:28:10;99727.19;;;10.72;32.24
82784;BME280;72520;55.762;37.780;2024-03-22T12:31:16;99727.03;;;11.00;32.09
82784;BME280;72520;55.762;37.780;2024-03-22T12:34:19;99715.19;;;10.79;32.82
82784;BME280;72520;55.762;37.780;2024-03-22T12:37:22;99722.50;;;10.63;32.88
82784;BME280;72520;55.762;37.780;2024-03-22T12:40:24;99709.09;;;10.64;32.78
82784;BME280;72520;55.762;37.780;2024-03-22T12:43:27;99700.56;;;10.72;32.26
82784;BME280;72520;55.762;37.780;2024-03-22T12:46:29;99694.72;;;10.67;32.45
82784;BME280;72520;55.762;37.780;2024-03-22T12:49:32;99691.34;;;10.90;32.47
82784;BME280;72520;55.762;37.780;2024-03-22T12:52:36;99681.41;;;10.67;32.53
82784;BME280;72520;55.762;37.780;2024-03-22T12:55:37;99678.88;;;10.78;32.85
82784;BME280;72520;55.762;37.780;2024-03-22T12:58:40;99673.13;;;10.71;33.32
82784;BME280;72520;55.762;37.780;2024-03-22T13:01:41;99674.06;;;10.58;33.28
82784;BME280;72520;55.762;37.780;2024-03-22T13:04:44;99673.28;;;10.43;33.86
82784;BME280;72520;55.762;37.780;2024-03-22T13:07:47;99675.97;;;10.16;34.62
82784;BME280;72520;55.762;37.780;2024-03-22T13:10:49;99681.28;;;10.02;34.51
82784;BME280;72520;55.762;37.780;2024-03-22T13:13:52;99677.53;;;9.92;34.91
82784;BME280;72520;55.762;37.780;2024-03-22T13:16:54;99665.97;;;9.79;35.44
82784;BME280;72520;55.762;37.780;2024-03-22T13:19:57;99664.50;;;9.61;36.13
82784;BME280;72520;55.762;37.780;2024-03-22T13:22:59;99657.25;;;9.63;36.15
82784;BME280;72520;55.762;37.780;2024-03-22T13:26:04;99644.84;;;9.63;35.47
82784;BME280;72520;55.762;37.780;2024-03-22T13:29:07;99645.63;;;9.51;35.72
82784;BME280;72520;55.762;37.780;2024-03-22T13:32:09;99637.25;;;9.57;35.89
82784;BME280;72520;55.762;37.780;2024-03-22T13:35:10;99638.97;;;9.58;36.36
82784;BME280;72520;55.762;37.780;2024-03-22T13:38:14;99631.69;;;9.48;36.39
82784;BME280;72520;55.762;37.780;2024-03-22T13:41:17;99635.00;;;9.51;35.74
82784;BME280;72520;55.762;37.780;2024-03-22T13:44:19;99633.41;;;9.49;36.27
82784;BME280;72520;55.762;37.780;2024-03-22T13:47:23;99628.25;;;9.46;36.12
82784;BME280;72520;55.762;37.780;2024-03-22T13:50:26;99623.75;;;9.34;36.15
82784;BME280;72520;55.762;37.780;2024-03-22T13:53:29;99617.31;;;9.24;36.08
82784;BME280;72520;55.762;37.780;2024-03-22T13:56:31;99618.44;;;9.19;36.31
82784;BME280;72520;55.762;37.780;2024-03-22T13:59:32;99610.66;;;9.16;36.58
82784;BME280;72520;55.762;37.780;2024-03-22T14:02:38;99608.94;;;9.15;36.91
82784;BME280;72520;55.762;37.780;2024-03-22T14:05:42;99599.50;;;9.11;37.22
82784;BME280;72520;55.762;37.780;2024-03-22T14:08:46;99596.94;;;9.10;37.62
82784;BME280;72520;55.762;37.780;2024-03-22T14:11:48;99593.06;;;9.01;38.15
82784;BME280;72520;55.762;37.780;2024-03-22T14:14:50;99586.03;;;9.00;38.12
82784;BME280;72520;55.762;37.780;2024-03-22T14:17:55;99589.44;;;9.02;37.90
82784;BME280;72520;55.762;37.780;2024-03-22T14:20:59;99581.78;;;8.98;38.10
82784;BME280;72520;55.762;37.780;2024-03-22T14:24:03;99583.56;;;8.97;38.49
82784;BME280;72520;55.762;37.780;2024-03-22T14:27:06;99582.63;;;8.84;38.64
82784;BME280;72520;55.762;37.780;2024-03-22T14:30:10;99575.16;;;8.91;38.91
82784;BME280;72520;55.762;37.780;2024-03-22T14:33:13;99569.91;;;8.75;38.96
82784;BME280;72520;55.762;37.780;2024-03-22T14:36:15;99571.56;;;8.78;38.88
82784;BME280;72520;55.762;37.780;2024-03-22T14:39:18;99563.28;;;8.68;39.19
82784;BME280;72520;55.762;37.780;2024-03-22T14:42:21;99560.53;;;8.69;39.49
82784;BME280;72520;55.762;37.780;2024-03-22T14:45:27;99570.28;;;8.55;40.15
82784;BME280;72520;55.762;37.780;2024-03-22T14:48:30;99573.72;;;8.57;39.42
82784;BME280;72520;55.762;37.780;2024-03-22T14:51:33;99568.50;;;8.55;39.84
82784;BME280;72520;55.762;37.780;2024-03-22T14:54:35;99558.94;;;8.53;39.67
82784;BME280;72520;55.762;37.780;2024-03-22T14:57:38;99563.19;;;8.55;39.89
82784;BME280;72520;55.762;37.780;2024-03-22T15:00:41;99557.13;;;8.53;40.18
82784;BME280;72520;55.762;37.780;2024-03-22T15:03:43;99553.81;;;8.50;39.86
82784;BME280;72520;55.762;37.780;2024-03-22T15:06:45;99553.16;;;8.46;39.99
82784;BME280;72520;55.762;37.780;2024-03-22T15:09:50;99550.88;;;8.40;40.33
82784;BME280;72520;55.762;37.780;2024-03-22T15:12:53;99549.22;;;8.38;40.26
82784;BME280;72520;55.762;37.780;2024-03-22T15:15:54;99532.25;;;8.26;40.46
82784;BME280;72520;55.762;37.780;2024-03-22T15:18:57;99547.84;;;8.16;40.46
82784;BME280;72520;55.762;37.780;2024-03-22T15:21:58;99540.00;;;8.15;40.37
82784;BME280;72520;55.762;37.780;2024-03-22T15:25:02;99544.63;;;8.11;40.11
82784;BME280;72520;55.762;37.780;2024-03-22T15:28:09;99542.72;;;7.99;40.66
82784;BME280;72520;55.762;37.780;2024-03-22T15:31:14;99543.66;;;7.98;40.81
82784;BME280;72520;55.762;37.780;2024-03-22T15:34:16;99536.22;;;7.89;40.85
82784;BME280;72520;55.762;37.780;2024-03-22T15:37:19;99538.13;;;7.87;40.73
82784;BME280;72520;55.762;37.780;2024-03-22T15:40:22;99540.19;;;7.82;40.92
82784;BME280;72520;55.762;37.780;2024-03-22T15:43:24;99543.47;;;7.72;41.41
82784;BME280;72520;55.762;37.780;2024-03-22T15:46:25;99540.72;;;7.73;41.07
82784;BME280;72520;55.762;37.780;2024-03-22T15:49:31;99527.25;;;7.62;41.65
82784;BME280;72520;55.762;37.780;2024-03-22T15:52:32;99526.84;;;7.54;41.57
82784;BME280;72520;55.762;37.780;2024-03-22T15:55:36;99529.16;;;7.44;42.41
82784;BME280;72520;55.762;37.780;2024-03-22T15:58:40;99523.94;;;7.43;41.84
82784;BME280;72520;55.762;37.780;2024-03-22T16:01:44;99518.06;;;7.38;42.32
82784;BME280;72520;55.762;37.780;2024-03-22T16:04:45;99518.41;;;7.32;42.89